sensor_id;sensor_type;location;lat;lon;timestamp;P1;durP1;ratioP1;P2;durP2;ratioP2
18881;SDS011;9573;50.948;11.600;2023-02-28T00:01:13;21.87;;;6.50;;
18881;SDS011;9573;50.948;11.600;2023-02-28T00:03:41;23.97;;;7.00;;
18881;SDS011;9573;50.948;11.600;2023-02-28T00:06:08;26.80;;;7.77;;
18881;SDS011;9573;50.948;11.600;2023-02-28T00:08:36;23.43;;;7.63;;
18881;SDS011;9573;50.948;11.600;2023-02-28T00:11:04;21.93;;;7.10;;
18881;SDS011;9573;50.948;11.600;2023-02-28T00:13:36;19.23;;;6.47;;
18881;SDS011;9573;50.948;11.600;2023-02-28T00:16:06;20.10;;;6.60;;
18881;SDS011;9573;50.948;11.600;2023-02-28T00:18:35;20.87;;;5.80;;
18881;SDS011;9573;50.948;11.600;2023-02-28T00:21:03;17.93;;;6.43;;
18881;SDS011;9573;50.948;11.600;2023-02-28T00:23:30;23.77;;;6.83;;
18881;SDS011;9573;50.948;11.600;2023-02-28T00:25:58;20.67;;;6.47;;
18881;SDS011;9573;50.948;11.600;2023-02-28T00:28:25;22.13;;;6.70;;
18881;SDS011;9573;50.948;11.600;2023-02-28T00:30:54;19.63;;;6.17;;
18881;SDS011;9573;50.948;11.600;2023-02-28T00:33:22;17.17;;;6.17;;
18881;SDS011;9573;50.948;11.600;2023-02-28T00:35:49;21.23;;;6.70;;
18881;SDS011;9573;50.948;11.600;2023-02-28T00:38:16;22.20;;;6.83;;
18881;SDS011;9573;50.948;11.600;2023-02-28T00:40:43;20.83;;;6.70;;
18881;SDS011;9573;50.948;11.600;2023-02-28T00:43:10;19.50;;;6.87;;
18881;SDS011;9573;50.948;11.600;2023-02-28T00:45:37;18.30;;;6.00;;
18881;SDS011;9573;50.948;11.600;2023-02-28T00:48:06;17.47;;;6.20;;
18881;SDS011;9573;50.948;11.600;2023-02-28T00:50:33;18.77;;;6.20;;
18881;SDS011;9573;50.948;11.600;2023-02-28T00:53:00;18.20;;;6.17;;
18881;SDS011;9573;50.948;11.600;2023-02-28T00:55:27;21.63;;;6.67;;
18881;SDS011;9573;50.948;11.600;2023-02-28T00:57:54;19.13;;;6.20;;
18881;SDS011;9573;50.948;11.600;2023-02-28T01:00:22;21.20;;;6.17;;
18881;SDS011;9573;50.948;11.600;2023-02-28T01:02:49;20.73;;;6.40;;
18881;SDS011;9573;50.948;11.600;2023-02-28T01:05:17;20.23;;;6.80;;
18881;SDS011;9573;50.948;11.600;2023-02-28T01:07:44;20.67;;;6.30;;
18881;SDS011;9573;50.948;11.600;2023-02-28T01:10:11;21.70;;;6.47;;
18881;SDS011;9573;50.948;11.600;2023-02-28T01:12:39;16.60;;;6.37;;
18881;SDS011;9573;50.948;11.600;2023-02-28T01:15:06;17.53;;;6.20;;
18881;SDS011;9573;50.948;11.600;2023-02-28T01:17:36;18.53;;;6.10;;
18881;SDS011;9573;50.948;11.600;2023-02-28T01:20:03;18.70;;;6.43;;
18881;SDS011;9573;50.948;11.600;2023-02-28T01:22:33;20.53;;;6.60;;
18881;SDS011;9573;50.948;11.600;2023-02-28T01:25:01;19.63;;;6.33;;
18881;SDS011;9573;50.948;11.600;2023-02-28T01:27:28;18.50;;;5.97;;
18881;SDS011;9573;50.948;11.600;2023-02-28T01:29:55;16.30;;;6.07;;
18881;SDS011;9573;50.948;11.600;2023-02-28T01:32:22;18.93;;;6.43;;
18881;SDS011;9573;50.948;11.600;2023-02-28T01:34:49;15.30;;;5.80;;
18881;SDS011;9573;50.948;11.600;2023-02-28T01:37:16;18.40;;;6.13;;
18881;SDS011;9573;50.948;11.600;2023-02-28T01:39:44;15.50;;;5.53;;
18881;SDS011;9573;50.948;11.600;2023-02-28T01:42:11;19.27;;;6.00;;
18881;SDS011;9573;50.948;11.600;2023-02-28T01:45:02;16.77;;;5.83;;
18881;SDS011;9573;50.948;11.600;2023-02-28T01:47:41;20.43;;;6.03;;
18881;SDS011;9573;50.948;11.600;2023-02-28T01:50:11;19.47;;;6.50;;
18881;SDS011;9573;50.948;11.600;2023-02-28T01:52:44;17.60;;;6.13;;
18881;SDS011;9573;50.948;11.600;2023-02-28T01:55:15;17.70;;;5.70;;
18881;SDS011;9573;50.948;11.600;2023-02-28T01:57:45;17.10;;;5.70;;
18881;SDS011;9573;50.948;11.600;2023-02-28T02:00:16;16.13;;;5.67;;
18881;SDS011;9573;50.948;11.600;2023-02-28T02:02:47;15.13;;;5.83;;
18881;SDS011;9573;50.948;11.600;2023-02-28T02:05:19;16.47;;;5.93;;
18881;SDS011;9573;50.948;11.600;2023-02-28T02:07:48;20.07;;;6.17;;
18881;SDS011;9573;50.948;11.600;2023-02-28T02:10:21;18.97;;;6.07;;
18881;SDS011;9573;50.948;11.600;2023-02-28T02:12:57;18.90;;;5.87;;
18881;SDS011;9573;50.948;11.600;2023-02-28T02:15:38;16.80;;;5.80;;
18881;SDS011;9573;50.948;11.600;2023-02-28T02:18:14;19.37;;;5.77;;
18881;SDS011;9573;50.948;11.600;2023-02-28T02:21:15;17.47;;;5.70;;
18881;SDS011;9573;50.948;11.600;2023-02-28T02:27:33;16.23;;;5.70;;
18881;SDS011;9573;50.948;11.600;2023-02-28T02:30:35;20.83;;;5.90;;
18881;SDS011;9573;50.948;11.600;2023-02-28T02:36:37;15.63;;;5.90;;
18881;SDS011;9573;50.948;11.600;2023-02-28T02:39:08;18.17;;;5.93;;
18881;SDS011;9573;50.948;11.600;2023-02-28T02:41:45;20.03;;;6.47;;
18881;SDS011;9573;50.948;11.600;2023-02-28T02:44:15;20.27;;;6.47;;
18881;SDS011;9573;50.948;11.600;2023-02-28T02:46:48;20.13;;;6.57;;
18881;SDS011;9573;50.948;11.600;2023-02-28T02:49:21;19.10;;;6.67;;
18881;SDS011;9573;50.948;11.600;2023-02-28T02:51:54;21.77;;;6.23;;
18881;SDS011;9573;50.948;11.600;2023-02-28T02:54:24;22.07;;;6.77;;
18881;SDS011;9573;50.948;11.600;2023-02-28T02:56:55;19.90;;;6.73;;
18881;SDS011;9573;50.948;11.600;2023-02-28T02:59:28;17.30;;;6.60;;
18881;SDS011;9573;50.948;11.600;2023-02-28T03:01:57;18.33;;;6.37;;
18881;SDS011;9573;50.948;11.600;2023-02-28T03:04:30;21.63;;;6.70;;
18881;SDS011;9573;50.948;11.600;2023-02-28T03:07:06;19.30;;;6.10;;
18881;SDS011;9573;50.948;11.600;2023-02-28T03:09:34;18.57;;;6.63;;
18881;SDS011;9573;50.948;11.600;2023-02-28T03:12:02;17.43;;;6.20;;
18881;SDS011;9573;50.948;11.600;2023-02-28T03:14:36;20.33;;;6.30;;
18881;SDS011;9573;50.948;11.600;2023-02-28T03:20:18;23.47;;;6.50;;
18881;SDS011;9573;50.948;11.600;2023-02-28T03:23:03;19.30;;;6.33;;
18881;SDS011;9573;50.948;11.600;2023-02-28T03:25:43;19.57;;;6.40;;
18881;SDS011;9573;50.948;11.600;2023-02-28T03:28:25;18.63;;;6.20;;
18881;SDS011;9573;50.948;11.600;2023-02-28T03:30:59;19.10;;;6.53;;
18881;SDS011;9573;50.948;11.600;2023-02-28T03:33:35;21.83;;;6.60;;
18881;SDS011;9573;50.948;11.600;2023-02-28T03:36:08;19.67;;;6.23;;
18881;SDS011;9573;50.948;11.600;2023-02-28T03:38:40;20.47;;;6.70;;
18881;SDS011;9573;50.948;11.600;2023-02-28T03:41:14;21.87;;;6.87;;
18881;SDS011;9573;50.948;11.600;2023-02-28T03:43:49;20.73;;;6.90;;
18881;SDS011;9573;50.948;11.600;2023-02-28T03:46:21;19.57;;;6.50;;
18881;SDS011;9573;50.948;11.600;2023-02-28T03:48:52;18.57;;;6.20;;
18881;SDS011;9573;50.948;11.600;2023-02-28T03:51:24;20.27;;;6.57;;
18881;SDS011;9573;50.948;11.600;2023-02-28T03:53:56;21.33;;;6.63;;
18881;SDS011;9573;50.948;11.600;2023-02-28T03:56:27;17.07;;;6.30;;
18881;SDS011;9573;50.948;11.600;2023-02-28T03:59:00;19.60;;;6.30;;
18881;SDS011;9573;50.948;11.600;2023-02-28T04:01:33;18.20;;;5.97;;
18881;SDS011;9573;50.948;11.600;2023-02-28T04:04:04;22.47;;;6.60;;
18881;SDS011;9573;50.948;11.600;2023-02-28T04:06:33;18.77;;;5.97;;
18881;SDS011;9573;50.948;11.600;2023-02-28T04:09:02;19.50;;;6.40;;
18881;SDS011;9573;50.948;11.600;2023-02-28T04:11:32;21.30;;;6.40;;
18881;SDS011;9573;50.948;11.600;2023-02-28T04:14:02;17.10;;;6.13;;
18881;SDS011;9573;50.948;11.600;2023-02-28T04:16:29;19.70;;;6.77;;
18881;SDS011;9573;50.948;11.600;2023-02-28T04:18:58;20.50;;;6.97;;
18881;SDS011;9573;50.948;11.600;2023-02-28T04:21:28;19.43;;;6.50;;
18881;SDS011;9573;50.948;11.600;2023-02-28T04:23:57;16.83;;;6.40;;
18881;SDS011;9573;50.948;11.600;2023-02-28T04:26:28;19.63;;;6.57;;
18881;SDS011;9573;50.948;11.600;2023-02-28T04:28:56;23.07;;;6.73;;
18881;SDS011;9573;50.948;11.600;2023-02-28T04:31:23;22.37;;;7.27;;
18881;SDS011;9573;50.948;11.600;2023-02-28T04:33:50;20.97;;;6.00;;
18881;SDS011;9573;50.948;11.600;2023-02-28T04:36:17;19.37;;;6.47;;
18881;SDS011;9573;50.948;11.600;2023-02-28T04:38:45;21.20;;;6.47;;
18881;SDS011;9573;50.948;11.600;2023-02-28T04:41:14;18.30;;;6.10;;
18881;SDS011;9573;50.948;11.600;2023-02-28T04:43:42;20.33;;;6.80;;
18881;SDS011;9573;50.948;11.600;2023-02-28T04:46:09;21.03;;;6.93;;
18881;SDS011;9573;50.948;11.600;2023-02-28T04:48:37;22.97;;;6.90;;
18881;SDS011;9573;50.948;11.600;2023-02-28T04:51:06;20.27;;;6.87;;
18881;SDS011;9573;50.948;11.600;2023-02-28T04:53:36;17.17;;;6.20;;
18881;SDS011;9573;50.948;11.600;2023-02-28T04:56:05;19.00;;;6.40;;
18881;SDS011;9573;50.948;11.600;2023-02-28T04:58:34;23.23;;;6.80;;
18881;SDS011;9573;50.948;11.600;2023-02-28T05:01:02;19.23;;;6.50;;
18881;SDS011;9573;50.948;11.600;2023-02-28T05:03:37;19.03;;;6.23;;
18881;SDS011;9573;50.948;11.600;2023-02-28T05:06:06;22.33;;;7.00;;
18881;SDS011;9573;50.948;11.600;2023-02-28T05:08:33;16.70;;;6.30;;
18881;SDS011;9573;50.948;11.600;2023-02-28T05:11:01;21.37;;;6.73;;
18881;SDS011;9573;50.948;11.600;2023-02-28T05:13:29;20.27;;;6.80;;
18881;SDS011;9573;50.948;11.600;2023-02-28T05:15:58;18.57;;;6.10;;
18881;SDS011;9573;50.948;11.600;2023-02-28T05:18:25;17.70;;;5.97;;
18881;SDS011;9573;50.948;11.600;2023-02-28T05:20:52;23.03;;;6.33;;
18881;SDS011;9573;50.948;11.600;2023-02-28T05:23:19;17.97;;;6.27;;
18881;SDS011;9573;50.948;11.600;2023-02-28T05:25:48;20.23;;;6.17;;
18881;SDS011;9573;50.948;11.600;2023-02-28T05:28:16;22.43;;;6.50;;
18881;SDS011;9573;50.948;11.600;2023-02-28T05:30:44;20.50;;;6.37;;
18881;SDS011;9573;50.948;11.600;2023-02-28T05:33:12;21.03;;;6.40;;
18881;SDS011;9573;50.948;11.600;2023-02-28T05:35:40;23.00;;;5.97;;
18881;SDS011;9573;50.948;11.600;2023-02-28T05:38:08;25.30;;;6.80;;
18881;SDS011;9573;50.948;11.600;2023-02-28T05:40:37;21.17;;;6.20;;
18881;SDS011;9573;50.948;11.600;2023-02-28T05:43:05;17.97;;;5.80;;
18881;SDS011;9573;50.948;11.600;2023-02-28T05:45:33;22.67;;;6.33;;
18881;SDS011;9573;50.948;11.600;2023-02-28T05:48:00;19.57;;;5.83;;
18881;SDS011;9573;50.948;11.600;2023-02-28T05:50:29;15.90;;;5.20;;
18881;SDS011;9573;50.948;11.600;2023-02-28T05:52:56;21.63;;;5.73;;
18881;SDS011;9573;50.948;11.600;2023-02-28T05:55:23;19.90;;;6.40;;
18881;SDS011;9573;50.948;11.600;2023-02-28T05:57:50;21.60;;;6.20;;
18881;SDS011;9573;50.948;11.600;2023-02-28T06:00:17;19.27;;;5.87;;
18881;SDS011;9573;50.948;11.600;2023-02-28T06:02:45;21.90;;;6.93;;
18881;SDS011;9573;50.948;11.600;2023-02-28T06:05:13;18.87;;;5.90;;
18881;SDS011;9573;50.948;11.600;2023-02-28T06:07:44;18.53;;;5.87;;
18881;SDS011;9573;50.948;11.600;2023-02-28T06:10:11;20.70;;;5.87;;
18881;SDS011;9573;50.948;11.600;2023-02-28T06:12:40;20.40;;;6.13;;
18881;SDS011;9573;50.948;11.600;2023-02-28T06:15:09;21.40;;;6.40;;
18881;SDS011;9573;50.948;11.600;2023-02-28T06:17:40;22.60;;;6.63;;
18881;SDS011;9573;50.948;11.600;2023-02-28T06:20:09;17.93;;;5.37;;
18881;SDS011;9573;50.948;11.600;2023-02-28T06:22:50;22.37;;;6.13;;
18881;SDS011;9573;50.948;11.600;2023-02-28T06:25:19;23.93;;;7.53;;
18881;SDS011;9573;50.948;11.600;2023-02-28T06:27:46;21.87;;;6.20;;
18881;SDS011;9573;50.948;11.600;2023-02-28T06:30:14;22.40;;;6.47;;
18881;SDS011;9573;50.948;11.600;2023-02-28T06:32:41;21.37;;;6.30;;
18881;SDS011;9573;50.948;11.600;2023-02-28T06:35:09;23.60;;;6.43;;
18881;SDS011;9573;50.948;11.600;2023-02-28T06:37:36;23.77;;;6.87;;
18881;SDS011;9573;50.948;11.600;2023-02-28T06:40:05;20.50;;;6.47;;
18881;SDS011;9573;50.948;11.600;2023-02-28T06:42:38;25.23;;;6.80;;
18881;SDS011;9573;50.948;11.600;2023-02-28T06:45:06;23.40;;;6.80;;
18881;SDS011;9573;50.948;11.600;2023-02-28T06:47:36;24.83;;;6.90;;
18881;SDS011;9573;50.948;11.600;2023-02-28T06:50:05;24.80;;;7.20;;
18881;SDS011;9573;50.948;11.600;2023-02-28T06:52:34;25.13;;;7.30;;
18881;SDS011;9573;50.948;11.600;2023-02-28T06:55:02;25.17;;;6.63;;
18881;SDS011;9573;50.948;11.600;2023-02-28T06:57:33;24.13;;;7.00;;
18881;SDS011;9573;50.948;11.600;2023-02-28T07:00:03;22.73;;;6.80;;
18881;SDS011;9573;50.948;11.600;2023-02-28T07:02:33;20.70;;;6.60;;
18881;SDS011;9573;50.948;11.600;2023-02-28T07:05:00;20.37;;;6.67;;
18881;SDS011;9573;50.948;11.600;2023-02-28T07:07:28;22.43;;;6.77;;
18881;SDS011;9573;50.948;11.600;2023-02-28T07:09:55;19.77;;;6.30;;
18881;SDS011;9573;50.948;11.600;2023-02-28T07:12:23;20.27;;;6.57;;
18881;SDS011;9573;50.948;11.600;2023-02-28T07:14:50;26.17;;;7.03;;
18881;SDS011;9573;50.948;11.600;2023-02-28T07:17:19;23.37;;;7.30;;
18881;SDS011;9573;50.948;11.600;2023-02-28T07:19:46;22.27;;;6.90;;
18881;SDS011;9573;50.948;11.600;2023-02-28T07:22:16;22.63;;;7.30;;
18881;SDS011;9573;50.948;11.600;2023-02-28T07:24:43;25.97;;;7.30;;
18881;SDS011;9573;50.948;11.600;2023-02-28T07:27:10;22.97;;;7.03;;
18881;SDS011;9573;50.948;11.600;2023-02-28T07:29:52;27.90;;;8.60;;
18881;SDS011;9573;50.948;11.600;2023-02-28T07:32:20;27.10;;;8.07;;
18881;SDS011;9573;50.948;11.600;2023-02-28T07:34:48;27.20;;;8.30;;
18881;SDS011;9573;50.948;11.600;2023-02-28T07:37:15;28.93;;;8.97;;
18881;SDS011;9573;50.948;11.600;2023-02-28T07:39:42;30.63;;;8.67;;
18881;SDS011;9573;50.948;11.600;2023-02-28T07:42:09;26.27;;;9.00;;
18881;SDS011;9573;50.948;11.600;2023-02-28T07:44:37;25.10;;;8.73;;
18881;SDS011;9573;50.948;11.600;2023-02-28T07:47:07;29.30;;;8.40;;
18881;SDS011;9573;50.948;11.600;2023-02-28T07:49:35;27.17;;;8.73;;
18881;SDS011;9573;50.948;11.600;2023-02-28T07:52:03;28.10;;;9.63;;
18881;SDS011;9573;50.948;11.600;2023-02-28T07:54:31;26.13;;;8.73;;
18881;SDS011;9573;50.948;11.600;2023-02-28T07:56:59;30.00;;;9.63;;
18881;SDS011;9573;50.948;11.600;2023-02-28T07:59:26;26.17;;;7.73;;
18881;SDS011;9573;50.948;11.600;2023-02-28T08:01:53;22.30;;;6.43;;
18881;SDS011;9573;50.948;11.600;2023-02-28T08:04:25;18.27;;;5.87;;
18881;SDS011;9573;50.948;11.600;2023-02-28T08:06:52;20.77;;;6.10;;
18881;SDS011;9573;50.948;11.600;2023-02-28T08:09:21;19.00;;;6.00;;
18881;SDS011;9573;50.948;11.600;2023-02-28T08:11:48;17.40;;;6.10;;
18881;SDS011;9573;50.948;11.600;2023-02-28T08:14:15;16.27;;;6.10;;
18881;SDS011;9573;50.948;11.600;2023-02-28T08:16:42;16.77;;;6.20;;
18881;SDS011;9573;50.948;11.600;2023-02-28T08:19:09;16.53;;;6.40;;
18881;SDS011;9573;50.948;11.600;2023-02-28T08:21:38;18.13;;;6.20;;
18881;SDS011;9573;50.948;11.600;2023-02-28T08:24:05;15.47;;;5.90;;
18881;SDS011;9573;50.948;11.600;2023-02-28T08:26:38;18.07;;;5.73;;
18881;SDS011;9573;50.948;11.600;2023-02-28T08:29:08;16.77;;;6.00;;
18881;SDS011;9573;50.948;11.600;2023-02-28T08:31:38;15.63;;;6.47;;
18881;SDS011;9573;50.948;11.600;2023-02-28T08:34:06;19.73;;;6.20;;
18881;SDS011;9573;50.948;11.600;2023-02-28T08:36:33;20.90;;;7.40;;
18881;SDS011;9573;50.948;11.600;2023-02-28T08:39:02;17.87;;;6.20;;
18881;SDS011;9573;50.948;11.600;2023-02-28T08:41:30;15.90;;;6.27;;
18881;SDS011;9573;50.948;11.600;2023-02-28T08:43:57;17.07;;;6.03;;
18881;SDS011;9573;50.948;11.600;2023-02-28T08:46:25;18.03;;;6.37;;
18881;SDS011;9573;50.948;11.600;2023-02-28T08:48:52;18.87;;;6.53;;
18881;SDS011;9573;50.948;11.600;2023-02-28T08:51:20;21.80;;;6.20;;
18881;SDS011;9573;50.948;11.600;2023-02-28T08:53:51;16.60;;;5.70;;
18881;SDS011;9573;50.948;11.600;2023-02-28T08:56:20;13.77;;;5.60;;
18881;SDS011;9573;50.948;11.600;2023-02-28T08:58:49;17.93;;;6.00;;
18881;SDS011;9573;50.948;11.600;2023-02-28T09:01:20;15.47;;;5.67;;
18881;SDS011;9573;50.948;11.600;2023-02-28T09:03:50;16.53;;;6.10;;
18881;SDS011;9573;50.948;11.600;2023-02-28T09:06:18;16.07;;;5.40;;
18881;SDS011;9573;50.948;11.600;2023-02-28T09:08:47;13.53;;;5.17;;
18881;SDS011;9573;50.948;11.600;2023-02-28T09:11:15;13.20;;;5.00;;
18881;SDS011;9573;50.948;11.600;2023-02-28T09:13:45;12.50;;;5.13;;
18881;SDS011;9573;50.948;11.600;2023-02-28T09:16:13;12.43;;;5.10;;
18881;SDS011;9573;50.948;11.600;2023-02-28T09:18:42;14.23;;;4.90;;
18881;SDS011;9573;50.948;11.600;2023-02-28T09:21:10;13.50;;;5.60;;
18881;SDS011;9573;50.948;11.600;2023-02-28T09:23:40;16.57;;;5.23;;
18881;SDS011;9573;50.948;11.600;2023-02-28T09:26:11;14.03;;;5.13;;
18881;SDS011;9573;50.948;11.600;2023-02-28T09:28:40;12.87;;;4.70;;
18881;SDS011;9573;50.948;11.600;2023-02-28T09:31:11;14.60;;;5.10;;
18881;SDS011;9573;50.948;11.600;2023-02-28T09:33:40;16.17;;;5.27;;
18881;SDS011;9573;50.948;11.600;2023-02-28T09:36:07;12.83;;;4.60;;
18881;SDS011;9573;50.948;11.600;2023-02-28T09:38:35;11.13;;;4.57;;
18881;SDS011;9573;50.948;11.600;2023-02-28T09:41:02;12.03;;;4.63;;
18881;SDS011;9573;50.948;11.600;2023-02-28T09:43:38;15.00;;;5.00;;
18881;SDS011;9573;50.948;11.600;2023-02-28T09:46:14;15.53;;;4.93;;
18881;SDS011;9573;50.948;11.600;2023-02-28T09:48:54;10.90;;;3.90;;
18881;SDS011;9573;50.948;11.600;2023-02-28T09:51:27;12.87;;;4.20;;
18881;SDS011;9573;50.948;11.600;2023-02-28T09:54:02;11.43;;;4.03;;
18881;SDS011;9573;50.948;11.600;2023-02-28T09:56:31;17.00;;;5.10;;
18881;SDS011;9573;50.948;11.600;2023-02-28T09:59:04;14.73;;;4.83;;
18881;SDS011;9573;50.948;11.600;2023-02-28T10:01:45;13.87;;;4.90;;
18881;SDS011;9573;50.948;11.600;2023-02-28T10:04:26;12.30;;;4.60;;
18881;SDS011;9573;50.948;11.600;2023-02-28T10:07:04;12.27;;;4.60;;
18881;SDS011;9573;50.948;11.600;2023-02-28T10:09:43;11.57;;;4.20;;
18881;SDS011;9573;50.948;11.600;2023-02-28T10:12:13;14.13;;;4.93;;
18881;SDS011;9573;50.948;11.600;2023-02-28T10:14:43;12.47;;;4.77;;
18881;SDS011;9573;50.948;11.600;2023-02-28T10:17:16;12.20;;;5.30;;
18881;SDS011;9573;50.948;11.600;2023-02-28T10:19:50;12.93;;;4.87;;
18881;SDS011;9573;50.948;11.600;2023-02-28T10:22:33;12.03;;;4.67;;
18881;SDS011;9573;50.948;11.600;2023-02-28T10:25:11;15.00;;;4.90;;
18881;SDS011;9573;50.948;11.600;2023-02-28T10:27:46;13.50;;;4.70;;
18881;SDS011;9573;50.948;11.600;2023-02-28T10:30:15;11.50;;;4.83;;
18881;SDS011;9573;50.948;11.600;2023-02-28T10:32:47;13.03;;;4.80;;
18881;SDS011;9573;50.948;11.600;2023-02-28T10:35:19;17.23;;;5.00;;
18881;SDS011;9573;50.948;11.600;2023-02-28T10:37:48;12.50;;;4.93;;
18881;SDS011;9573;50.948;11.600;2023-02-28T10:40:29;14.33;;;4.60;;
18881;SDS011;9573;50.948;11.600;2023-02-28T10:43:00;14.03;;;5.20;;
18881;SDS011;9573;50.948;11.600;2023-02-28T10:45:30;18.90;;;5.17;;
18881;SDS011;9573;50.948;11.600;2023-02-28T10:48:01;14.53;;;4.90;;
18881;SDS011;9573;50.948;11.600;2023-02-28T10:50:33;19.07;;;5.30;;
18881;SDS011;9573;50.948;11.600;2023-02-28T10:53:08;21.87;;;5.57;;
18881;SDS011;9573;50.948;11.600;2023-02-28T10:55:58;21.23;;;6.03;;
18881;SDS011;9573;50.948;11.600;2023-02-28T10:58:28;17.83;;;5.37;;
18881;SDS011;9573;50.948;11.600;2023-02-28T11:00:58;14.50;;;5.03;;
18881;SDS011;9573;50.948;11.600;2023-02-28T11:03:32;16.03;;;5.13;;
18881;SDS011;9573;50.948;11.600;2023-02-28T11:06:04;15.20;;;5.20;;
18881;SDS011;9573;50.948;11.600;2023-02-28T11:08:34;19.50;;;5.80;;
18881;SDS011;9573;50.948;11.600;2023-02-28T11:11:12;21.53;;;5.93;;
18881;SDS011;9573;50.948;11.600;2023-02-28T11:13:42;15.10;;;5.30;;
18881;SDS011;9573;50.948;11.600;2023-02-28T11:16:12;25.53;;;6.40;;
18881;SDS011;9573;50.948;11.600;2023-02-28T11:18:43;18.17;;;6.27;;
18881;SDS011;9573;50.948;11.600;2023-02-28T11:21:16;17.50;;;5.27;;
18881;SDS011;9573;50.948;11.600;2023-02-28T11:23:49;16.40;;;5.50;;
18881;SDS011;9573;50.948;11.600;2023-02-28T11:26:35;16.00;;;6.10;;
18881;SDS011;9573;50.948;11.600;2023-02-28T11:29:11;17.60;;;5.80;;
18881;SDS011;9573;50.948;11.600;2023-02-28T11:32:02;15.80;;;6.17;;
18881;SDS011;9573;50.948;11.600;2023-02-28T11:34:39;21.83;;;6.70;;
18881;SDS011;9573;50.948;11.600;2023-02-28T11:37:10;17.07;;;6.00;;
18881;SDS011;9573;50.948;11.600;2023-02-28T11:39:40;16.53;;;5.70;;
18881;SDS011;9573;50.948;11.600;2023-02-28T11:42:11;17.37;;;5.37;;
18881;SDS011;9573;50.948;11.600;2023-02-28T11:45:15;15.90;;;6.07;;
18881;SDS011;9573;50.948;11.600;2023-02-28T11:48:01;20.80;;;5.87;;
18881;SDS011;9573;50.948;11.600;2023-02-28T11:50:44;17.40;;;6.17;;
18881;SDS011;9573;50.948;11.600;2023-02-28T11:53:26;18.13;;;6.33;;
18881;SDS011;9573;50.948;11.600;2023-02-28T11:56:26;15.90;;;5.80;;
18881;SDS011;9573;50.948;11.600;2023-02-28T11:59:02;16.40;;;6.20;;
18881;SDS011;9573;50.948;11.600;2023-02-28T12:02:05;18.33;;;6.20;;
18881;SDS011;9573;50.948;11.600;2023-02-28T12:04:51;16.53;;;6.13;;
18881;SDS011;9573;50.948;11.600;2023-02-28T12:07:31;19.33;;;6.47;;
18881;SDS011;9573;50.948;11.600;2023-02-28T12:10:10;16.80;;;6.37;;
18881;SDS011;9573;50.948;11.600;2023-02-28T12:12:48;15.97;;;6.53;;
18881;SDS011;9573;50.948;11.600;2023-02-28T12:15:41;18.87;;;6.57;;
18881;SDS011;9573;50.948;11.600;2023-02-28T12:18:38;19.17;;;6.37;;
18881;SDS011;9573;50.948;11.600;2023-02-28T12:21:22;22.07;;;6.10;;
18881;SDS011;9573;50.948;11.600;2023-02-28T12:24:14;19.47;;;6.70;;
18881;SDS011;9573;50.948;11.600;2023-02-28T12:27:06;18.13;;;6.20;;
18881;SDS011;9573;50.948;11.600;2023-02-28T12:29:39;18.23;;;6.23;;
18881;SDS011;9573;50.948;11.600;2023-02-28T12:32:15;16.50;;;6.47;;
18881;SDS011;9573;50.948;11.600;2023-02-28T12:34:48;18.23;;;6.43;;
18881;SDS011;9573;50.948;11.600;2023-02-28T12:37:20;20.57;;;6.70;;
18881;SDS011;9573;50.948;11.600;2023-02-28T12:39:54;22.60;;;7.50;;
18881;SDS011;9573;50.948;11.600;2023-02-28T12:42:31;17.27;;;6.03;;
18881;SDS011;9573;50.948;11.600;2023-02-28T12:45:04;17.17;;;6.80;;
18881;SDS011;9573;50.948;11.600;2023-02-28T12:47:40;16.90;;;6.33;;
18881;SDS011;9573;50.948;11.600;2023-02-28T12:50:11;22.73;;;7.67;;
18881;SDS011;9573;50.948;11.600;2023-02-28T12:52:40;21.37;;;7.87;;
18881;SDS011;9573;50.948;11.600;2023-02-28T12:55:19;21.93;;;7.60;;
18881;SDS011;9573;50.948;11.600;2023-02-28T12:57:56;22.37;;;7.80;;
18881;SDS011;9573;50.948;11.600;2023-02-28T13:00:32;22.67;;;7.80;;
18881;SDS011;9573;50.948;11.600;2023-02-28T13:03:19;19.97;;;7.37;;
18881;SDS011;9573;50.948;11.600;2023-02-28T13:06:05;20.73;;;7.20;;
18881;SDS011;9573;50.948;11.600;2023-02-28T13:08:53;20.57;;;7.07;;
18881;SDS011;9573;50.948;11.600;2023-02-28T13:11:31;20.73;;;7.20;;
18881;SDS011;9573;50.948;11.600;2023-02-28T13:14:04;19.47;;;6.83;;
18881;SDS011;9573;50.948;11.600;2023-02-28T13:16:56;23.87;;;7.33;;
18881;SDS011;9573;50.948;11.600;2023-02-28T13:19:27;24.63;;;7.87;;
18881;SDS011;9573;50.948;11.600;2023-02-28T13:21:56;18.73;;;7.10;;
18881;SDS011;9573;50.948;11.600;2023-02-28T13:24:42;18.97;;;7.60;;
18881;SDS011;9573;50.948;11.600;2023-02-28T13:33:30;22.13;;;8.00;;
18881;SDS011;9573;50.948;11.600;2023-02-28T13:36:09;20.17;;;7.40;;
18881;SDS011;9573;50.948;11.600;2023-02-28T13:38:54;22.90;;;7.77;;
18881;SDS011;9573;50.948;11.600;2023-02-28T13:41:40;21.77;;;7.17;;
18881;SDS011;9573;50.948;11.600;2023-02-28T13:44:19;19.13;;;7.07;;
18881;SDS011;9573;50.948;11.600;2023-02-28T13:49:50;19.00;;;6.33;;
18881;SDS011;9573;50.948;11.600;2023-02-28T13:52:20;21.77;;;7.70;;
18881;SDS011;9573;50.948;11.600;2023-02-28T13:54:54;22.30;;;7.43;;
18881;SDS011;9573;50.948;11.600;2023-02-28T13:57:46;18.30;;;6.67;;
18881;SDS011;9573;50.948;11.600;2023-02-28T14:00:45;20.33;;;6.93;;
18881;SDS011;9573;50.948;11.600;2023-02-28T14:06:51;22.30;;;7.80;;
18881;SDS011;9573;50.948;11.600;2023-02-28T14:09:21;25.20;;;8.70;;
18881;SDS011;9573;50.948;11.600;2023-02-28T14:11:52;20.93;;;7.27;;
18881;SDS011;9573;50.948;11.600;2023-02-28T14:17:24;19.23;;;6.87;;
18881;SDS011;9573;50.948;11.600;2023-02-28T14:19:52;21.27;;;7.33;;
18881;SDS011;9573;50.948;11.600;2023-02-28T14:22:26;14.73;;;5.17;;
18881;SDS011;9573;50.948;11.600;2023-02-28T14:25:19;22.10;;;7.73;;
18881;SDS011;9573;50.948;11.600;2023-02-28T14:27:58;23.53;;;7.57;;
18881;SDS011;9573;50.948;11.600;2023-02-28T14:30:42;22.13;;;7.50;;
18881;SDS011;9573;50.948;11.600;2023-02-28T14:33:22;20.27;;;7.53;;
18881;SDS011;9573;50.948;11.600;2023-02-28T14:36:03;23.87;;;8.50;;
18881;SDS011;9573;50.948;11.600;2023-02-28T14:38:42;21.97;;;7.67;;
18881;SDS011;9573;50.948;11.600;2023-02-28T14:41:18;23.23;;;8.17;;
18881;SDS011;9573;50.948;11.600;2023-02-28T14:43:53;26.97;;;8.40;;
18881;SDS011;9573;50.948;11.600;2023-02-28T14:46:23;23.70;;;8.10;;
18881;SDS011;9573;50.948;11.600;2023-02-28T14:48:57;23.70;;;7.80;;
18881;SDS011;9573;50.948;11.600;2023-02-28T14:51:25;24.33;;;8.47;;
18881;SDS011;9573;50.948;11.600;2023-02-28T14:53:57;23.20;;;8.20;;
18881;SDS011;9573;50.948;11.600;2023-02-28T14:56:26;22.67;;;7.53;;
18881;SDS011;9573;50.948;11.600;2023-02-28T14:59:02;17.47;;;6.37;;
18881;SDS011;9573;50.948;11.600;2023-02-28T15:01:30;23.97;;;8.00;;
18881;SDS011;9573;50.948;11.600;2023-02-28T15:04:04;18.80;;;7.23;;
18881;SDS011;9573;50.948;11.600;2023-02-28T15:06:32;21.47;;;6.80;;
18881;SDS011;9573;50.948;11.600;2023-02-28T15:09:06;24.53;;;8.13;;
18881;SDS011;9573;50.948;11.600;2023-02-28T15:11:36;24.73;;;8.47;;
18881;SDS011;9573;50.948;11.600;2023-02-28T15:14:04;25.90;;;8.30;;
18881;SDS011;9573;50.948;11.600;2023-02-28T15:16:32;26.07;;;8.33;;
18881;SDS011;9573;50.948;11.600;2023-02-28T15:19:06;24.13;;;8.87;;
18881;SDS011;9573;50.948;11.600;2023-02-28T15:21:41;23.23;;;8.10;;
18881;SDS011;9573;50.948;11.600;2023-02-28T15:24:13;25.33;;;9.27;;
18881;SDS011;9573;50.948;11.600;2023-02-28T15:26:49;22.27;;;8.30;;
18881;SDS011;9573;50.948;11.600;2023-02-28T15:29:21;24.00;;;8.27;;